sensor_id;sensor_type;location;lat;lon;timestamp;P1;durP1;ratioP1;P2;durP2;ratioP2
16963;SDS011;8598;50.508;10.436;2023-03-19T00:02:19;14.10;;;9.40;;
16963;SDS011;8598;50.508;10.436;2023-03-19T00:04:46;15.40;;;10.87;;
16963;SDS011;8598;50.508;10.436;2023-03-19T00:07:13;12.27;;;9.53;;
16963;SDS011;8598;50.508;10.436;2023-03-19T00:09:41;14.73;;;9.80;;
16963;SDS011;8598;50.508;10.436;2023-03-19T00:12:08;12.77;;;9.67;;
16963;SDS011;8598;50.508;10.436;2023-03-19T00:14:37;14.90;;;9.40;;
16963;SDS011;8598;50.508;10.436;2023-03-19T00:17:04;16.80;;;9.77;;
16963;SDS011;8598;50.508;10.436;2023-03-19T00:19:31;16.43;;;10.30;;
16963;SDS011;8598;50.508;10.436;2023-03-19T00:21:58;14.87;;;11.00;;
16963;SDS011;8598;50.508;10.436;2023-03-19T00:24:25;15.90;;;10.10;;
16963;SDS011;8598;50.508;10.436;2023-03-19T00:26:52;13.07;;;10.20;;
16963;SDS011;8598;50.508;10.436;2023-03-19T00:29:19;16.17;;;9.60;;
16963;SDS011;8598;50.508;10.436;2023-03-19T00:31:48;15.37;;;10.10;;
16963;SDS011;8598;50.508;10.436;2023-03-19T00:34:15;13.17;;;9.53;;
16963;SDS011;8598;50.508;10.436;2023-03-19T00:36:43;13.37;;;9.57;;
16963;SDS011;8598;50.508;10.436;2023-03-19T00:39:10;14.70;;;10.10;;
16963;SDS011;8598;50.508;10.436;2023-03-19T00:41:37;17.23;;;9.50;;
16963;SDS011;8598;50.508;10.436;2023-03-19T00:44:04;16.27;;;10.87;;
16963;SDS011;8598;50.508;10.436;2023-03-19T00:46:32;13.63;;;9.80;;
16963;SDS011;8598;50.508;10.436;2023-03-19T00:49:00;15.13;;;10.37;;
16963;SDS011;8598;50.508;10.436;2023-03-19T00:51:26;17.60;;;10.30;;
16963;SDS011;8598;50.508;10.436;2023-03-19T00:53:53;14.77;;;9.70;;
16963;SDS011;8598;50.508;10.436;2023-03-19T00:56:20;24.50;;;10.60;;
16963;SDS011;8598;50.508;10.436;2023-03-19T00:58:46;13.53;;;10.30;;
16963;SDS011;8598;50.508;10.436;2023-03-19T01:01:13;21.67;;;11.63;;
16963;SDS011;8598;50.508;10.436;2023-03-19T01:03:42;13.77;;;9.77;;
16963;SDS011;8598;50.508;10.436;2023-03-19T01:06:11;14.67;;;10.80;;
16963;SDS011;8598;50.508;10.436;2023-03-19T01:08:38;16.43;;;11.00;;
16963;SDS011;8598;50.508;10.436;2023-03-19T01:11:06;14.57;;;10.37;;
16963;SDS011;8598;50.508;10.436;2023-03-19T01:13:34;15.83;;;11.20;;
16963;SDS011;8598;50.508;10.436;2023-03-19T01:16:01;22.07;;;13.17;;
16963;SDS011;8598;50.508;10.436;2023-03-19T01:18:28;13.33;;;10.50;;
16963;SDS011;8598;50.508;10.436;2023-03-19T01:20:55;18.17;;;11.87;;
16963;SDS011;8598;50.508;10.436;2023-03-19T01:23:23;18.50;;;10.83;;
16963;SDS011;8598;50.508;10.436;2023-03-19T01:25:50;16.97;;;10.53;;
16963;SDS011;8598;50.508;10.436;2023-03-19T01:28:16;15.07;;;9.80;;
16963;SDS011;8598;50.508;10.436;2023-03-19T01:30:43;14.87;;;9.53;;
16963;SDS011;8598;50.508;10.436;2023-03-19T01:33:10;16.00;;;9.17;;
16963;SDS011;8598;50.508;10.436;2023-03-19T01:35:36;16.93;;;10.43;;
16963;SDS011;8598;50.508;10.436;2023-03-19T01:38:03;15.33;;;11.00;;
16963;SDS011;8598;50.508;10.436;2023-03-19T01:40:31;17.20;;;10.50;;
16963;SDS011;8598;50.508;10.436;2023-03-19T01:43:11;15.63;;;10.83;;
16963;SDS011;8598;50.508;10.436;2023-03-19T01:45:40;14.40;;;9.97;;
16963;SDS011;8598;50.508;10.436;2023-03-19T01:48:08;18.47;;;11.57;;
16963;SDS011;8598;50.508;10.436;2023-03-19T01:50:44;14.63;;;10.67;;
16963;SDS011;8598;50.508;10.436;2023-03-19T01:53:14;16.23;;;9.83;;
16963;SDS011;8598;50.508;10.436;2023-03-19T01:55:44;12.60;;;9.70;;
16963;SDS011;8598;50.508;10.436;2023-03-19T01:58:12;15.57;;;10.53;;
16963;SDS011;8598;50.508;10.436;2023-03-19T02:00:39;15.97;;;10.40;;
16963;SDS011;8598;50.508;10.436;2023-03-19T02:03:06;16.20;;;10.10;;
16963;SDS011;8598;50.508;10.436;2023-03-19T02:05:33;16.20;;;10.57;;
16963;SDS011;8598;50.508;10.436;2023-03-19T02:08:03;15.30;;;10.30;;
16963;SDS011;8598;50.508;10.436;2023-03-19T02:10:32;18.03;;;11.17;;
16963;SDS011;8598;50.508;10.436;2023-03-19T02:13:00;15.30;;;10.70;;
16963;SDS011;8598;50.508;10.436;2023-03-19T02:15:27;18.60;;;9.87;;
16963;SDS011;8598;50.508;10.436;2023-03-19T02:17:54;18.43;;;10.90;;
16963;SDS011;8598;50.508;10.436;2023-03-19T02:20:23;15.33;;;10.33;;
16963;SDS011;8598;50.508;10.436;2023-03-19T02:22:57;18.03;;;12.00;;
16963;SDS011;8598;50.508;10.436;2023-03-19T02:25:31;23.33;;;12.07;;
16963;SDS011;8598;50.508;10.436;2023-03-19T02:28:03;16.43;;;11.77;;
16963;SDS011;8598;50.508;10.436;2023-03-19T02:30:32;18.93;;;11.83;;
16963;SDS011;8598;50.508;10.436;2023-03-19T02:32:59;16.30;;;11.10;;
16963;SDS011;8598;50.508;10.436;2023-03-19T02:35:25;18.63;;;11.37;;
16963;SDS011;8598;50.508;10.436;2023-03-19T02:37:56;16.97;;;11.93;;
16963;SDS011;8598;50.508;10.436;2023-03-19T02:40:23;17.60;;;11.33;;
16963;SDS011;8598;50.508;10.436;2023-03-19T02:42:54;15.20;;;10.27;;
16963;SDS011;8598;50.508;10.436;2023-03-19T02:45:22;18.63;;;11.63;;
16963;SDS011;8598;50.508;10.436;2023-03-19T02:47:54;17.70;;;11.07;;
16963;SDS011;8598;50.508;10.436;2023-03-19T02:50:20;17.27;;;10.97;;
16963;SDS011;8598;50.508;10.436;2023-03-19T02:52:47;15.33;;;10.83;;
16963;SDS011;8598;50.508;10.436;2023-03-19T02:55:14;16.87;;;11.10;;
16963;SDS011;8598;50.508;10.436;2023-03-19T02:57:42;19.97;;;10.87;;
16963;SDS011;8598;50.508;10.436;2023-03-19T03:00:09;15.70;;;10.30;;
16963;SDS011;8598;50.508;10.436;2023-03-19T03:02:38;14.63;;;10.10;;
16963;SDS011;8598;50.508;10.436;2023-03-19T03:05:05;14.53;;;10.63;;
16963;SDS011;8598;50.508;10.436;2023-03-19T03:07:33;12.73;;;9.60;;
16963;SDS011;8598;50.508;10.436;2023-03-19T03:10:00;15.93;;;10.70;;
16963;SDS011;8598;50.508;10.436;2023-03-19T03:12:26;17.47;;;10.07;;
16963;SDS011;8598;50.508;10.436;2023-03-19T03:14:53;16.47;;;10.47;;
16963;SDS011;8598;50.508;10.436;2023-03-19T03:17:20;15.80;;;10.47;;
16963;SDS011;8598;50.508;10.436;2023-03-19T03:19:47;19.40;;;10.90;;
16963;SDS011;8598;50.508;10.436;2023-03-19T03:22:14;16.90;;;10.87;;
16963;SDS011;8598;50.508;10.436;2023-03-19T03:24:41;17.13;;;10.43;;
16963;SDS011;8598;50.508;10.436;2023-03-19T03:27:08;16.07;;;10.73;;
16963;SDS011;8598;50.508;10.436;2023-03-19T03:29:35;17.33;;;11.00;;
16963;SDS011;8598;50.508;10.436;2023-03-19T03:32:02;16.07;;;10.70;;
16963;SDS011;8598;50.508;10.436;2023-03-19T03:34:29;15.87;;;8.93;;
16963;SDS011;8598;50.508;10.436;2023-03-19T03:36:56;15.97;;;9.87;;
16963;SDS011;8598;50.508;10.436;2023-03-19T03:39:23;11.43;;;8.77;;
16963;SDS011;8598;50.508;10.436;2023-03-19T03:41:50;15.20;;;9.87;;
16963;SDS011;8598;50.508;10.436;2023-03-19T03:44:17;17.33;;;9.60;;
16963;SDS011;8598;50.508;10.436;2023-03-19T03:46:43;15.77;;;9.03;;
16963;SDS011;8598;50.508;10.436;2023-03-19T03:49:10;13.93;;;9.27;;
16963;SDS011;8598;50.508;10.436;2023-03-19T03:51:37;12.53;;;8.90;;
16963;SDS011;8598;50.508;10.436;2023-03-19T03:54:05;15.10;;;9.50;;
16963;SDS011;8598;50.508;10.436;2023-03-19T03:56:32;13.10;;;8.67;;
16963;SDS011;8598;50.508;10.436;2023-03-19T03:58:58;12.10;;;8.37;;
16963;SDS011;8598;50.508;10.436;2023-03-19T04:01:25;10.07;;;8.13;;
16963;SDS011;8598;50.508;10.436;2023-03-19T04:03:52;10.30;;;8.03;;
16963;SDS011;8598;50.508;10.436;2023-03-19T04:06:19;12.43;;;7.57;;
16963;SDS011;8598;50.508;10.436;2023-03-19T04:08:48;12.30;;;8.20;;
16963;SDS011;8598;50.508;10.436;2023-03-19T04:11:16;13.83;;;7.83;;
16963;SDS011;8598;50.508;10.436;2023-03-19T04:13:43;12.43;;;8.70;;
16963;SDS011;8598;50.508;10.436;2023-03-19T04:16:09;14.97;;;9.53;;
16963;SDS011;8598;50.508;10.436;2023-03-19T04:18:36;12.23;;;8.50;;
16963;SDS011;8598;50.508;10.436;2023-03-19T04:21:03;11.50;;;8.40;;
16963;SDS011;8598;50.508;10.436;2023-03-19T04:23:31;13.27;;;7.60;;
16963;SDS011;8598;50.508;10.436;2023-03-19T04:25:58;11.93;;;8.43;;
16963;SDS011;8598;50.508;10.436;2023-03-19T04:28:27;10.93;;;7.83;;
16963;SDS011;8598;50.508;10.436;2023-03-19T04:30:57;10.43;;;7.57;;
16963;SDS011;8598;50.508;10.436;2023-03-19T04:33:25;11.83;;;7.70;;
16963;SDS011;8598;50.508;10.436;2023-03-19T04:35:51;11.93;;;8.27;;
16963;SDS011;8598;50.508;10.436;2023-03-19T04:38:19;12.63;;;7.70;;
16963;SDS011;8598;50.508;10.436;2023-03-19T04:40:45;9.60;;;7.33;;
16963;SDS011;8598;50.508;10.436;2023-03-19T04:43:12;12.13;;;7.93;;
16963;SDS011;8598;50.508;10.436;2023-03-19T04:45:41;15.23;;;9.43;;
16963;SDS011;8598;50.508;10.436;2023-03-19T04:48:07;11.23;;;7.93;;
16963;SDS011;8598;50.508;10.436;2023-03-19T04:50:34;13.23;;;8.27;;
16963;SDS011;8598;50.508;10.436;2023-03-19T04:53:01;13.37;;;8.20;;
16963;SDS011;8598;50.508;10.436;2023-03-19T04:55:27;14.23;;;9.10;;
16963;SDS011;8598;50.508;10.436;2023-03-19T04:57:54;12.73;;;7.90;;
16963;SDS011;8598;50.508;10.436;2023-03-19T05:00:21;9.10;;;7.73;;
16963;SDS011;8598;50.508;10.436;2023-03-19T05:02:49;11.27;;;8.37;;
16963;SDS011;8598;50.508;10.436;2023-03-19T05:05:15;13.73;;;10.07;;
16963;SDS011;8598;50.508;10.436;2023-03-19T05:07:42;16.47;;;10.23;;
16963;SDS011;8598;50.508;10.436;2023-03-19T05:10:09;12.63;;;8.80;;
16963;SDS011;8598;50.508;10.436;2023-03-19T05:12:37;19.97;;;8.20;;
16963;SDS011;8598;50.508;10.436;2023-03-19T05:15:04;11.53;;;8.10;;
16963;SDS011;8598;50.508;10.436;2023-03-19T05:17:31;11.77;;;8.93;;
16963;SDS011;8598;50.508;10.436;2023-03-19T05:20:01;12.03;;;9.10;;
16963;SDS011;8598;50.508;10.436;2023-03-19T05:22:28;11.10;;;9.10;;
16963;SDS011;8598;50.508;10.436;2023-03-19T05:24:55;12.13;;;8.87;;
16963;SDS011;8598;50.508;10.436;2023-03-19T05:27:23;14.03;;;7.60;;
16963;SDS011;8598;50.508;10.436;2023-03-19T05:29:50;12.47;;;8.47;;
16963;SDS011;8598;50.508;10.436;2023-03-19T05:32:17;10.27;;;7.63;;
16963;SDS011;8598;50.508;10.436;2023-03-19T05:34:44;11.20;;;8.03;;
16963;SDS011;8598;50.508;10.436;2023-03-19T05:37:12;14.37;;;8.53;;
16963;SDS011;8598;50.508;10.436;2023-03-19T05:39:38;13.10;;;7.33;;
16963;SDS011;8598;50.508;10.436;2023-03-19T05:42:05;11.80;;;8.20;;
16963;SDS011;8598;50.508;10.436;2023-03-19T05:44:32;10.17;;;8.00;;
16963;SDS011;8598;50.508;10.436;2023-03-19T05:46:59;13.87;;;8.80;;
16963;SDS011;8598;50.508;10.436;2023-03-19T05:49:25;12.60;;;7.80;;
16963;SDS011;8598;50.508;10.436;2023-03-19T05:51:52;9.53;;;7.40;;
16963;SDS011;8598;50.508;10.436;2023-03-19T05:54:20;10.10;;;7.97;;
16963;SDS011;8598;50.508;10.436;2023-03-19T05:56:47;10.67;;;8.17;;
16963;SDS011;8598;50.508;10.436;2023-03-19T05:59:13;11.27;;;7.30;;
16963;SDS011;8598;50.508;10.436;2023-03-19T06:01:40;10.97;;;8.10;;
16963;SDS011;8598;50.508;10.436;2023-03-19T06:04:07;12.73;;;7.03;;
16963;SDS011;8598;50.508;10.436;2023-03-19T06:06:33;10.03;;;6.57;;
16963;SDS011;8598;50.508;10.436;2023-03-19T06:09:01;13.17;;;7.07;;
16963;SDS011;8598;50.508;10.436;2023-03-19T06:11:29;9.40;;;6.27;;
16963;SDS011;8598;50.508;10.436;2023-03-19T06:13:56;9.43;;;7.40;;
16963;SDS011;8598;50.508;10.436;2023-03-19T06:16:23;11.13;;;6.87;;
16963;SDS011;8598;50.508;10.436;2023-03-19T06:18:51;10.47;;;7.67;;
16963;SDS011;8598;50.508;10.436;2023-03-19T06:21:17;10.53;;;7.47;;
16963;SDS011;8598;50.508;10.436;2023-03-19T06:23:44;10.80;;;7.67;;
16963;SDS011;8598;50.508;10.436;2023-03-19T06:26:11;19.60;;;13.23;;
16963;SDS011;8598;50.508;10.436;2023-03-19T06:28:39;16.57;;;13.70;;
16963;SDS011;8598;50.508;10.436;2023-03-19T06:31:05;19.07;;;11.40;;
16963;SDS011;8598;50.508;10.436;2023-03-19T06:33:32;16.93;;;11.60;;
16963;SDS011;8598;50.508;10.436;2023-03-19T06:36:00;13.90;;;8.93;;
16963;SDS011;8598;50.508;10.436;2023-03-19T06:38:27;10.93;;;7.70;;
16963;SDS011;8598;50.508;10.436;2023-03-19T06:40:54;13.47;;;7.27;;
16963;SDS011;8598;50.508;10.436;2023-03-19T06:43:20;9.03;;;6.63;;
16963;SDS011;8598;50.508;10.436;2023-03-19T06:45:48;10.67;;;6.97;;
16963;SDS011;8598;50.508;10.436;2023-03-19T06:48:15;10.00;;;7.30;;
16963;SDS011;8598;50.508;10.436;2023-03-19T06:50:43;10.87;;;6.87;;
16963;SDS011;8598;50.508;10.436;2023-03-19T06:53:10;10.40;;;7.13;;
16963;SDS011;8598;50.508;10.436;2023-03-19T06:55:37;13.13;;;8.37;;
16963;SDS011;8598;50.508;10.436;2023-03-19T06:58:04;10.63;;;7.67;;
16963;SDS011;8598;50.508;10.436;2023-03-19T07:00:31;10.77;;;7.67;;
16963;SDS011;8598;50.508;10.436;2023-03-19T07:02:59;11.03;;;8.03;;
16963;SDS011;8598;50.508;10.436;2023-03-19T07:05:26;9.87;;;6.77;;
16963;SDS011;8598;50.508;10.436;2023-03-19T07:07:53;10.10;;;6.87;;
16963;SDS011;8598;50.508;10.436;2023-03-19T07:10:20;10.23;;;6.37;;
16963;SDS011;8598;50.508;10.436;2023-03-19T07:12:46;13.43;;;7.93;;
16963;SDS011;8598;50.508;10.436;2023-03-19T07:15:13;11.90;;;9.83;;
16963;SDS011;8598;50.508;10.436;2023-03-19T07:17:41;13.97;;;7.77;;
16963;SDS011;8598;50.508;10.436;2023-03-19T07:20:11;18.83;;;10.97;;
16963;SDS011;8598;50.508;10.436;2023-03-19T07:22:38;12.07;;;8.60;;
16963;SDS011;8598;50.508;10.436;2023-03-19T07:25:06;9.90;;;8.03;;
16963;SDS011;8598;50.508;10.436;2023-03-19T07:27:33;11.67;;;7.80;;
16963;SDS011;8598;50.508;10.436;2023-03-19T07:29:59;27.03;;;14.73;;
16963;SDS011;8598;50.508;10.436;2023-03-19T07:32:26;29.80;;;17.10;;
16963;SDS011;8598;50.508;10.436;2023-03-19T07:34:53;20.50;;;11.53;;
16963;SDS011;8598;50.508;10.436;2023-03-19T07:37:21;18.50;;;10.63;;
16963;SDS011;8598;50.508;10.436;2023-03-19T07:39:47;16.10;;;8.60;;
16963;SDS011;8598;50.508;10.436;2023-03-19T07:42:14;13.10;;;6.90;;
16963;SDS011;8598;50.508;10.436;2023-03-19T07:44:41;10.97;;;7.57;;
16963;SDS011;8598;50.508;10.436;2023-03-19T07:47:08;14.70;;;8.47;;
16963;SDS011;8598;50.508;10.436;2023-03-19T07:49:35;8.37;;;6.03;;
16963;SDS011;8598;50.508;10.436;2023-03-19T07:52:01;8.13;;;6.30;;
16963;SDS011;8598;50.508;10.436;2023-03-19T07:54:29;9.70;;;6.50;;
16963;SDS011;8598;50.508;10.436;2023-03-19T07:56:56;14.70;;;10.60;;
16963;SDS011;8598;50.508;10.436;2023-03-19T07:59:22;10.57;;;7.47;;
16963;SDS011;8598;50.508;10.436;2023-03-19T08:01:49;9.20;;;6.87;;
16963;SDS011;8598;50.508;10.436;2023-03-19T08:04:16;8.53;;;6.70;;
16963;SDS011;8598;50.508;10.436;2023-03-19T08:06:42;43.27;;;31.80;;
16963;SDS011;8598;50.508;10.436;2023-03-19T08:09:09;22.93;;;17.83;;
16963;SDS011;8598;50.508;10.436;2023-03-19T08:11:37;20.63;;;14.90;;
16963;SDS011;8598;50.508;10.436;2023-03-19T08:14:04;17.23;;;13.07;;
16963;SDS011;8598;50.508;10.436;2023-03-19T08:16:30;15.53;;;10.57;;
16963;SDS011;8598;50.508;10.436;2023-03-19T08:18:57;17.20;;;12.07;;
16963;SDS011;8598;50.508;10.436;2023-03-19T08:21:24;19.03;;;12.73;;
16963;SDS011;8598;50.508;10.436;2023-03-19T08:23:51;34.07;;;22.90;;
16963;SDS011;8598;50.508;10.436;2023-03-19T08:26:18;25.57;;;19.83;;
16963;SDS011;8598;50.508;10.436;2023-03-19T08:28:46;14.40;;;10.57;;
16963;SDS011;8598;50.508;10.436;2023-03-19T08:31:12;10.87;;;8.33;;
16963;SDS011;8598;50.508;10.436;2023-03-19T08:33:39;13.07;;;8.43;;
16963;SDS011;8598;50.508;10.436;2023-03-19T08:36:06;14.57;;;11.57;;
16963;SDS011;8598;50.508;10.436;2023-03-19T08:38:35;13.70;;;9.60;;
16963;SDS011;8598;50.508;10.436;2023-03-19T08:41:02;12.00;;;7.47;;
16963;SDS011;8598;50.508;10.436;2023-03-19T08:43:30;11.63;;;8.43;;
16963;SDS011;8598;50.508;10.436;2023-03-19T08:45:59;14.63;;;9.67;;
16963;SDS011;8598;50.508;10.436;2023-03-19T08:48:26;11.97;;;8.57;;
16963;SDS011;8598;50.508;10.436;2023-03-19T08:50:53;10.73;;;8.40;;
16963;SDS011;8598;50.508;10.436;2023-03-19T08:53:21;12.20;;;8.30;;
16963;SDS011;8598;50.508;10.436;2023-03-19T08:55:51;11.77;;;8.70;;
16963;SDS011;8598;50.508;10.436;2023-03-19T08:58:18;13.33;;;9.53;;
16963;SDS011;8598;50.508;10.436;2023-03-19T09:00:45;12.57;;;9.20;;
16963;SDS011;8598;50.508;10.436;2023-03-19T09:03:13;18.93;;;11.40;;
16963;SDS011;8598;50.508;10.436;2023-03-19T09:05:40;16.23;;;10.33;;
16963;SDS011;8598;50.508;10.436;2023-03-19T09:08:06;16.00;;;9.10;;
16963;SDS011;8598;50.508;10.436;2023-03-19T09:10:33;12.17;;;7.60;;
16963;SDS011;8598;50.508;10.436;2023-03-19T09:13:00;15.40;;;10.70;;
16963;SDS011;8598;50.508;10.436;2023-03-19T09:15:27;10.70;;;8.70;;
16963;SDS011;8598;50.508;10.436;2023-03-19T09:17:53;12.87;;;10.60;;
16963;SDS011;8598;50.508;10.436;2023-03-19T09:20:21;15.07;;;10.93;;
16963;SDS011;8598;50.508;10.436;2023-03-19T09:22:48;20.73;;;13.00;;
16963;SDS011;8598;50.508;10.436;2023-03-19T09:25:14;14.57;;;9.50;;
16963;SDS011;8598;50.508;10.436;2023-03-19T09:27:41;20.90;;;12.23;;
16963;SDS011;8598;50.508;10.436;2023-03-19T09:30:08;17.30;;;9.80;;
16963;SDS011;8598;50.508;10.436;2023-03-19T09:32:36;20.80;;;11.37;;
16963;SDS011;8598;50.508;10.436;2023-03-19T09:35:03;16.53;;;11.73;;
16963;SDS011;8598;50.508;10.436;2023-03-19T09:37:31;10.10;;;7.67;;
16963;SDS011;8598;50.508;10.436;2023-03-19T09:39:58;11.27;;;6.93;;
16963;SDS011;8598;50.508;10.436;2023-03-19T09:42:30;13.37;;;7.80;;
16963;SDS011;8598;50.508;10.436;2023-03-19T09:45:11;12.20;;;7.77;;
16963;SDS011;8598;50.508;10.436;2023-03-19T09:47:40;8.83;;;7.50;;
16963;SDS011;8598;50.508;10.436;2023-03-19T09:50:09;8.50;;;6.60;;
16963;SDS011;8598;50.508;10.436;2023-03-19T09:52:41;9.20;;;7.77;;
16963;SDS011;8598;50.508;10.436;2023-03-19T09:55:13;10.27;;;7.10;;
16963;SDS011;8598;50.508;10.436;2023-03-19T09:57:51;10.23;;;6.70;;
16963;SDS011;8598;50.508;10.436;2023-03-19T10:00:20;8.83;;;6.90;;
16963;SDS011;8598;50.508;10.436;2023-03-19T10:02:52;8.30;;;6.23;;
16963;SDS011;8598;50.508;10.436;2023-03-19T10:05:24;12.03;;;7.97;;
16963;SDS011;8598;50.508;10.436;2023-03-19T10:08:05;8.93;;;6.80;;
16963;SDS011;8598;50.508;10.436;2023-03-19T10:10:55;7.67;;;6.33;;
16963;SDS011;8598;50.508;10.436;2023-03-19T10:13:40;9.33;;;7.83;;
16963;SDS011;8598;50.508;10.436;2023-03-19T10:16:19;12.20;;;6.90;;
16963;SDS011;8598;50.508;10.436;2023-03-19T10:18:49;9.77;;;6.73;;
16963;SDS011;8598;50.508;10.436;2023-03-19T10:21:19;8.67;;;7.60;;
16963;SDS011;8598;50.508;10.436;2023-03-19T10:23:52;7.13;;;6.10;;
16963;SDS011;8598;50.508;10.436;2023-03-19T10:26:25;9.30;;;6.40;;
16963;SDS011;8598;50.508;10.436;2023-03-19T10:28:57;9.30;;;7.00;;
16963;SDS011;8598;50.508;10.436;2023-03-19T10:31:29;8.30;;;6.37;;
16963;SDS011;8598;50.508;10.436;2023-03-19T10:34:27;8.27;;;6.80;;
16963;SDS011;8598;50.508;10.436;2023-03-19T10:37:00;8.97;;;5.90;;
16963;SDS011;8598;50.508;10.436;2023-03-19T10:39:30;8.43;;;4.93;;
16963;SDS011;8598;50.508;10.436;2023-03-19T10:42:04;8.93;;;5.53;;
16963;SDS011;8598;50.508;10.436;2023-03-19T10:44:40;12.60;;;8.23;;
16963;SDS011;8598;50.508;10.436;2023-03-19T10:47:11;10.60;;;6.07;;
16963;SDS011;8598;50.508;10.436;2023-03-19T10:49:39;7.00;;;5.20;;
16963;SDS011;8598;50.508;10.436;2023-03-19T10:52:12;8.87;;;5.67;;
16963;SDS011;8598;50.508;10.436;2023-03-19T10:54:45;7.33;;;5.07;;
16963;SDS011;8598;50.508;10.436;2023-03-19T10:57:20;4.77;;;4.17;;
16963;SDS011;8598;50.508;10.436;2023-03-19T10:59:48;7.93;;;4.70;;
16963;SDS011;8598;50.508;10.436;2023-03-19T11:02:15;7.53;;;4.30;;
16963;SDS011;8598;50.508;10.436;2023-03-19T11:04:43;8.73;;;4.93;;
16963;SDS011;8598;50.508;10.436;2023-03-19T11:07:10;5.40;;;4.90;;
16963;SDS011;8598;50.508;10.436;2023-03-19T11:09:39;5.33;;;4.83;;
16963;SDS011;8598;50.508;10.436;2023-03-19T11:12:14;9.80;;;5.20;;
16963;SDS011;8598;50.508;10.436;2023-03-19T11:14:45;7.40;;;5.57;;
16963;SDS011;8598;50.508;10.436;2023-03-19T11:17:17;5.83;;;4.87;;
16963;SDS011;8598;50.508;10.436;2023-03-19T11:19:48;5.00;;;4.50;;
16963;SDS011;8598;50.508;10.436;2023-03-19T11:22:19;8.93;;;5.30;;
16963;SDS011;8598;50.508;10.436;2023-03-19T11:24:49;9.20;;;5.80;;
16963;SDS011;8598;50.508;10.436;2023-03-19T11:27:19;10.60;;;7.87;;
16963;SDS011;8598;50.508;10.436;2023-03-19T11:29:53;6.47;;;5.97;;
16963;SDS011;8598;50.508;10.436;2023-03-19T11:32:26;6.77;;;5.00;;
16963;SDS011;8598;50.508;10.436;2023-03-19T11:35:07;8.87;;;5.33;;
16963;SDS011;8598;50.508;10.436;2023-03-19T11:37:42;7.07;;;5.50;;
16963;SDS011;8598;50.508;10.436;2023-03-19T11:40:19;4.70;;;4.20;;
16963;SDS011;8598;50.508;10.436;2023-03-19T11:43:01;5.93;;;4.47;;
16963;SDS011;8598;50.508;10.436;2023-03-19T11:45:43;6.20;;;4.10;;
16963;SDS011;8598;50.508;10.436;2023-03-19T11:48:19;7.77;;;5.97;;
16963;SDS011;8598;50.508;10.436;2023-03-19T11:50:56;6.83;;;4.97;;
16963;SDS011;8598;50.508;10.436;2023-03-19T11:53:26;8.80;;;5.07;;
16963;SDS011;8598;50.508;10.436;2023-03-19T11:55:59;7.17;;;5.77;;
16963;SDS011;8598;50.508;10.436;2023-03-19T11:58:48;9.33;;;6.63;;
16963;SDS011;8598;50.508;10.436;2023-03-19T12:04:29;12.40;;;7.70;;
16963;SDS011;8598;50.508;10.436;2023-03-19T12:07:10;6.87;;;6.17;;
16963;SDS011;8598;50.508;10.436;2023-03-19T12:09:45;6.77;;;4.57;;
16963;SDS011;8598;50.508;10.436;2023-03-19T12:12:19;5.40;;;4.90;;
16963;SDS011;8598;50.508;10.436;2023-03-19T12:14:55;13.77;;;9.37;;
16963;SDS011;8598;50.508;10.436;2023-03-19T12:17:35;16.20;;;12.40;;
16963;SDS011;8598;50.508;10.436;2023-03-19T12:20:21;14.53;;;10.80;;
16963;SDS011;8598;50.508;10.436;2023-03-19T12:23:11;6.33;;;5.53;;
16963;SDS011;8598;50.508;10.436;2023-03-19T12:25:50;4.90;;;4.37;;
16963;SDS011;8598;50.508;10.436;2023-03-19T12:28:29;4.83;;;4.20;;
16963;SDS011;8598;50.508;10.436;2023-03-19T12:31:05;5.03;;;4.47;;
16963;SDS011;8598;50.508;10.436;2023-03-19T12:33:51;5.37;;;4.87;;
16963;SDS011;8598;50.508;10.436;2023-03-19T12:36:27;6.93;;;5.43;;
16963;SDS011;8598;50.508;10.436;2023-03-19T12:38:57;6.07;;;4.63;;
16963;SDS011;8598;50.508;10.436;2023-03-19T12:41:28;7.60;;;6.20;;
16963;SDS011;8598;50.508;10.436;2023-03-19T12:43:57;9.83;;;7.50;;
16963;SDS011;8598;50.508;10.436;2023-03-19T12:46:28;6.13;;;4.83;;
16963;SDS011;8598;50.508;10.436;2023-03-19T12:48:59;5.30;;;4.80;;
16963;SDS011;8598;50.508;10.436;2023-03-19T12:51:31;6.87;;;5.70;;
16963;SDS011;8598;50.508;10.436;2023-03-19T12:54:00;9.23;;;6.40;;
16963;SDS011;8598;50.508;10.436;2023-03-19T12:56:31;7.17;;;4.97;;
16963;SDS011;8598;50.508;10.436;2023-03-19T12:59:07;4.10;;;3.70;;
16963;SDS011;8598;50.508;10.436;2023-03-19T13:01:40;4.20;;;3.80;;
16963;SDS011;8598;50.508;10.436;2023-03-19T13:04:12;8.10;;;5.80;;
16963;SDS011;8598;50.508;10.436;2023-03-19T13:06:42;6.97;;;5.77;;
16963;SDS011;8598;50.508;10.436;2023-03-19T13:09:19;5.17;;;4.67;;
16963;SDS011;8598;50.508;10.436;2023-03-19T13:11:54;5.20;;;4.63;;
16963;SDS011;8598;50.508;10.436;2023-03-19T13:14:26;5.70;;;4.53;;
16963;SDS011;8598;50.508;10.436;2023-03-19T13:17:01;6.10;;;4.17;;
16963;SDS011;8598;50.508;10.436;2023-03-19T13:19:37;3.47;;;3.17;;
16963;SDS011;8598;50.508;10.436;2023-03-19T13:22:09;4.73;;;3.37;;
16963;SDS011;8598;50.508;10.436;2023-03-19T13:24:39;5.20;;;4.20;;
16963;SDS011;8598;50.508;10.436;2023-03-19T13:27:10;7.30;;;3.50;;
16963;SDS011;8598;50.508;10.436;2023-03-19T13:29:50;4.10;;;3.53;;
16963;SDS011;8598;50.508;10.436;2023-03-19T13:32:26;4.87;;;3.40;;
16963;SDS011;8598;50.508;10.436;2023-03-19T13:38:01;5.60;;;3.30;;
16963;SDS011;8598;50.508;10.436;2023-03-19T13:40:42;3.30;;;3.00;;
16963;SDS011;8598;50.508;10.436;2023-03-19T13:49:28;5.43;;;4.20;;
16963;SDS011;8598;50.508;10.436;2023-03-19T13:51:58;4.10;;;2.40;;
16963;SDS011;8598;50.508;10.436;2023-03-19T13:54:31;6.17;;;3.50;;
16963;SDS011;8598;50.508;10.436;2023-03-19T13:57:04;4.07;;;3.23;;
16963;SDS011;8598;50.508;10.436;2023-03-19T13:59:47;5.27;;;3.07;;
16963;SDS011;8598;50.508;10.436;2023-03-19T14:05:16;6.27;;;4.27;;
16963;SDS011;8598;50.508;10.436;2023-03-19T14:07:47;4.57;;;3.13;;
16963;SDS011;8598;50.508;10.436;2023-03-19T14:10:20;6.17;;;4.10;;
16963;SDS011;8598;50.508;10.436;2023-03-19T14:12:50;6.00;;;3.23;;
16963;SDS011;8598;50.508;10.436;2023-03-19T14:15:27;3.43;;;2.60;;
16963;SDS011;8598;50.508;10.436;2023-03-19T14:17:56;3.60;;;3.30;;
16963;SDS011;8598;50.508;10.436;2023-03-19T14:20:27;4.20;;;2.90;;
16963;SDS011;8598;50.508;10.436;2023-03-19T14:23:02;3.20;;;3.00;;
16963;SDS011;8598;50.508;10.436;2023-03-19T14:25:51;2.90;;;2.20;;
16963;SDS011;8598;50.508;10.436;2023-03-19T14:28:22;8.40;;;6.57;;
16963;SDS011;8598;50.508;10.436;2023-03-19T14:30:55;8.83;;;7.17;;
16963;SDS011;8598;50.508;10.436;2023-03-19T14:33:24;8.83;;;5.40;;
16963;SDS011;8598;50.508;10.436;2023-03-19T14:35:54;7.87;;;3.93;;
16963;SDS011;8598;50.508;10.436;2023-03-19T14:38:24;4.67;;;4.20;;
16963;SDS011;8598;50.508;10.436;2023-03-19T14:40:57;4.13;;;3.53;;
16963;SDS011;8598;50.508;10.436;2023-03-19T14:43:31;4.67;;;3.13;;
16963;SDS011;8598;50.508;10.436;2023-03-19T14:46:15;3.33;;;3.03;;
16963;SDS011;8598;50.508;10.436;2023-03-19T14:48:55;4.10;;;3.07;;
16963;SDS011;8598;50.508;10.436;2023-03-19T14:51:54;4.33;;;3.93;;
16963;SDS011;8598;50.508;10.436;2023-03-19T14:54:27;11.23;;;6.00;;
16963;SDS011;8598;50.508;10.436;2023-03-19T14:57:04;15.67;;;8.30;;
16963;SDS011;8598;50.508;10.436;2023-03-19T14:59:35;7.03;;;5.10;;
16963;SDS011;8598;50.508;10.436;2023-03-19T15:02:03;9.37;;;6.30;;
16963;SDS011;8598;50.508;10.436;2023-03-19T15:04:38;4.80;;;4.40;;
16963;SDS011;8598;50.508;10.436;2023-03-19T15:07:13;4.57;;;3.63;;